sensor_id;sensor_type;location;lat;lon;timestamp;P1;durP1;ratioP1;P2;durP2;ratioP2
50231;SDS011;36118;56.468;84.952;2022-09-24T00:04:09;3.28;;;1.00;;
50231;SDS011;36118;56.468;84.952;2022-09-24T00:09:14;4.00;;;0.80;;
50231;SDS011;36118;56.468;84.952;2022-09-24T00:14:20;3.10;;;1.10;;
50231;SDS011;36118;56.468;84.952;2022-09-24T00:19:23;1.50;;;0.50;;
50231;SDS011;36118;56.468;84.952;2022-09-24T00:24:26;5.20;;;0.68;;
50231;SDS011;36118;56.468;84.952;2022-09-24T00:29:47;5.28;;;0.95;;
50231;SDS011;36118;56.468;84.952;2022-09-24T00:34:50;5.28;;;1.25;;
50231;SDS011;36118;56.468;84.952;2022-09-24T00:39:54;3.00;;;0.90;;
50231;SDS011;36118;56.468;84.952;2022-09-24T00:44:57;4.05;;;1.13;;
50231;SDS011;36118;56.468;84.952;2022-09-24T00:55:07;8.02;;;0.90;;
50231;SDS011;36118;56.468;84.952;2022-09-24T01:00:11;3.60;;;0.77;;
50231;SDS011;36118;56.468;84.952;2022-09-24T01:05:15;2.25;;;0.70;;
50231;SDS011;36118;56.468;84.952;2022-09-24T01:10:18;2.78;;;0.70;;
50231;SDS011;36118;56.468;84.952;2022-09-24T01:15:51;4.75;;;1.00;;
50231;SDS011;36118;56.468;84.952;2022-09-24T01:21:27;2.97;;;0.80;;
50231;SDS011;36118;56.468;84.952;2022-09-24T01:26:46;3.47;;;1.20;;
50231;SDS011;36118;56.468;84.952;2022-09-24T01:37:20;14.18;;;4.10;;
50231;SDS011;36118;56.468;84.952;2022-09-24T01:42:24;9.20;;;2.75;;
50231;SDS011;36118;56.468;84.952;2022-09-24T01:47:30;7.20;;;2.05;;
50231;SDS011;36118;56.468;84.952;2022-09-24T01:58:14;5.28;;;1.50;;
50231;SDS011;36118;56.468;84.952;2022-09-24T02:03:26;6.47;;;1.60;;
50231;SDS011;36118;56.468;84.952;2022-09-24T02:08:31;7.10;;;2.22;;
50231;SDS011;36118;56.468;84.952;2022-09-24T02:13:36;9.85;;;3.00;;
50231;SDS011;36118;56.468;84.952;2022-09-24T02:18:45;8.38;;;2.10;;
50231;SDS011;36118;56.468;84.952;2022-09-24T02:24:00;8.13;;;2.83;;
50231;SDS011;36118;56.468;84.952;2022-09-24T02:29:07;9.48;;;2.65;;
50231;SDS011;36118;56.468;84.952;2022-09-24T02:34:10;9.20;;;2.58;;
50231;SDS011;36118;56.468;84.952;2022-09-24T02:39:23;8.48;;;2.55;;
50231;SDS011;36118;56.468;84.952;2022-09-24T02:44:26;6.55;;;2.35;;
50231;SDS011;36118;56.468;84.952;2022-09-24T02:49:30;4.60;;;1.60;;
50231;SDS011;36118;56.468;84.952;2022-09-24T02:54:33;3.45;;;1.10;;
50231;SDS011;36118;56.468;84.952;2022-09-24T02:59:35;8.35;;;2.10;;
50231;SDS011;36118;56.468;84.952;2022-09-24T03:04:38;8.63;;;2.80;;
50231;SDS011;36118;56.468;84.952;2022-09-24T03:09:41;13.43;;;1.60;;
50231;SDS011;36118;56.468;84.952;2022-09-24T03:14:44;8.45;;;1.67;;
50231;SDS011;36118;56.468;84.952;2022-09-24T03:19:46;3.00;;;1.00;;
50231;SDS011;36118;56.468;84.952;2022-09-24T03:24:49;3.95;;;1.00;;
50231;SDS011;36118;56.468;84.952;2022-09-24T03:29:52;2.80;;;1.10;;
50231;SDS011;36118;56.468;84.952;2022-09-24T03:35:13;4.60;;;1.48;;
50231;SDS011;36118;56.468;84.952;2022-09-24T03:40:16;4.65;;;1.20;;
50231;SDS011;36118;56.468;84.952;2022-09-24T03:45:19;7.05;;;1.40;;
50231;SDS011;36118;56.468;84.952;2022-09-24T03:50:22;9.57;;;3.22;;
50231;SDS011;36118;56.468;84.952;2022-09-24T03:55:25;6.70;;;1.70;;
50231;SDS011;36118;56.468;84.952;2022-09-24T04:00:28;10.20;;;1.67;;
50231;SDS011;36118;56.468;84.952;2022-09-24T04:05:31;4.63;;;1.50;;
50231;SDS011;36118;56.468;84.952;2022-09-24T04:10:34;8.00;;;2.15;;
50231;SDS011;36118;56.468;84.952;2022-09-24T04:15:36;5.50;;;1.63;;
50231;SDS011;36118;56.468;84.952;2022-09-24T04:20:39;5.63;;;1.77;;
50231;SDS011;36118;56.468;84.952;2022-09-24T04:25:43;23.73;;;2.90;;
50231;SDS011;36118;56.468;84.952;2022-09-24T04:30:46;12.35;;;1.73;;
50231;SDS011;36118;56.468;84.952;2022-09-24T04:35:49;3.10;;;1.58;;
50231;SDS011;36118;56.468;84.952;2022-09-24T04:40:51;13.43;;;1.83;;
50231;SDS011;36118;56.468;84.952;2022-09-24T04:45:55;1.88;;;0.88;;
50231;SDS011;36118;56.468;84.952;2022-09-24T04:51:00;27.42;;;1.95;;
50231;SDS011;36118;56.468;84.952;2022-09-24T04:56:03;4.70;;;0.60;;
50231;SDS011;36118;56.468;84.952;2022-09-24T05:01:07;9.38;;;1.70;;
50231;SDS011;36118;56.468;84.952;2022-09-24T05:06:09;8.27;;;2.40;;
50231;SDS011;36118;56.468;84.952;2022-09-24T05:11:12;5.50;;;2.22;;
50231;SDS011;36118;56.468;84.952;2022-09-24T05:16:15;6.03;;;1.13;;
50231;SDS011;36118;56.468;84.952;2022-09-24T05:21:18;4.63;;;1.13;;
50231;SDS011;36118;56.468;84.952;2022-09-24T05:26:21;5.88;;;1.05;;
50231;SDS011;36118;56.468;84.952;2022-09-24T05:31:42;21.02;;;1.45;;
50231;SDS011;36118;56.468;84.952;2022-09-24T05:36:45;4.55;;;0.88;;
50231;SDS011;36118;56.468;84.952;2022-09-24T05:41:48;7.80;;;1.05;;
50231;SDS011;36118;56.468;84.952;2022-09-24T05:46:51;4.25;;;0.90;;
50231;SDS011;36118;56.468;84.952;2022-09-24T05:51:54;20.15;;;2.22;;
50231;SDS011;36118;56.468;84.952;2022-09-24T05:56:58;12.10;;;1.17;;
50231;SDS011;36118;56.468;84.952;2022-09-24T06:02:01;8.43;;;1.42;;
50231;SDS011;36118;56.468;84.952;2022-09-24T06:07:04;4.97;;;1.30;;
50231;SDS011;36118;56.468;84.952;2022-09-24T06:12:07;3.40;;;1.20;;
50231;SDS011;36118;56.468;84.952;2022-09-24T06:17:12;6.53;;;1.20;;
50231;SDS011;36118;56.468;84.952;2022-09-24T06:22:14;5.20;;;1.10;;
50231;SDS011;36118;56.468;84.952;2022-09-24T06:27:17;3.95;;;1.13;;
50231;SDS011;36118;56.468;84.952;2022-09-24T06:32:22;5.20;;;1.10;;
50231;SDS011;36118;56.468;84.952;2022-09-24T06:37:25;4.00;;;1.10;;
50231;SDS011;36118;56.468;84.952;2022-09-24T06:42:28;19.65;;;1.55;;
50231;SDS011;36118;56.468;84.952;2022-09-24T06:47:32;7.20;;;1.00;;
50231;SDS011;36118;56.468;84.952;2022-09-24T06:52:34;3.03;;;0.80;;
50231;SDS011;36118;56.468;84.952;2022-09-24T06:57:37;3.42;;;0.75;;
50231;SDS011;36118;56.468;84.952;2022-09-24T07:02:40;14.73;;;1.50;;
50231;SDS011;36118;56.468;84.952;2022-09-24T07:07:43;6.57;;;1.67;;
50231;SDS011;36118;56.468;84.952;2022-09-24T07:12:46;2.78;;;0.88;;
50231;SDS011;36118;56.468;84.952;2022-09-24T07:17:53;2.42;;;0.70;;
50231;SDS011;36118;56.468;84.952;2022-09-24T07:22:57;2.90;;;0.63;;
50231;SDS011;36118;56.468;84.952;2022-09-24T07:28:01;3.20;;;1.17;;
50231;SDS011;36118;56.468;84.952;2022-09-24T07:33:05;4.20;;;0.90;;
50231;SDS011;36118;56.468;84.952;2022-09-24T07:38:09;4.13;;;1.20;;
50231;SDS011;36118;56.468;84.952;2022-09-24T07:43:19;3.03;;;1.25;;
50231;SDS011;36118;56.468;84.952;2022-09-24T07:48:22;2.75;;;0.80;;
50231;SDS011;36118;56.468;84.952;2022-09-24T07:53:25;4.30;;;1.10;;
50231;SDS011;36118;56.468;84.952;2022-09-24T07:58:28;8.20;;;1.60;;
50231;SDS011;36118;56.468;84.952;2022-09-24T08:03:31;3.60;;;0.85;;
50231;SDS011;36118;56.468;84.952;2022-09-24T08:08:34;3.50;;;1.00;;
50231;SDS011;36118;56.468;84.952;2022-09-24T08:13:37;1.90;;;1.00;;
50231;SDS011;36118;56.468;84.952;2022-09-24T08:18:41;15.77;;;1.77;;
50231;SDS011;36118;56.468;84.952;2022-09-24T08:23:44;4.88;;;2.63;;
50231;SDS011;36118;56.468;84.952;2022-09-24T08:28:48;10.00;;;2.30;;
50231;SDS011;36118;56.468;84.952;2022-09-24T08:33:52;3.35;;;1.20;;
50231;SDS011;36118;56.468;84.952;2022-09-24T08:38:55;4.93;;;1.48;;
50231;SDS011;36118;56.468;84.952;2022-09-24T08:44:07;6.78;;;1.90;;
50231;SDS011;36118;56.468;84.952;2022-09-24T08:49:15;6.88;;;2.00;;
50231;SDS011;36118;56.468;84.952;2022-09-24T08:54:21;5.00;;;1.30;;
50231;SDS011;36118;56.468;84.952;2022-09-24T08:59:30;7.78;;;1.88;;
50231;SDS011;36118;56.468;84.952;2022-09-24T09:10:15;7.78;;;2.88;;
50231;SDS011;36118;56.468;84.952;2022-09-24T09:15:21;8.15;;;4.60;;
50231;SDS011;36118;56.468;84.952;2022-09-24T09:20:31;6.82;;;3.45;;
50231;SDS011;36118;56.468;84.952;2022-09-24T09:25:37;10.75;;;4.38;;
50231;SDS011;36118;56.468;84.952;2022-09-24T09:41:47;13.45;;;3.67;;
50231;SDS011;36118;56.468;84.952;2022-09-24T09:46:45;8.13;;;2.97;;
50231;SDS011;36118;56.468;84.952;2022-09-24T09:51:51;9.65;;;4.95;;
50231;SDS011;36118;56.468;84.952;2022-09-24T09:56:56;8.25;;;3.40;;
50231;SDS011;36118;56.468;84.952;2022-09-24T10:01:59;6.30;;;2.40;;
50231;SDS011;36118;56.468;84.952;2022-09-24T10:07:06;5.35;;;2.22;;
50231;SDS011;36118;56.468;84.952;2022-09-24T10:12:19;5.35;;;2.88;;
50231;SDS011;36118;56.468;84.952;2022-09-24T10:17:24;11.93;;;4.28;;
50231;SDS011;36118;56.468;84.952;2022-09-24T10:22:30;9.77;;;4.18;;
50231;SDS011;36118;56.468;84.952;2022-09-24T10:27:34;9.50;;;3.67;;
50231;SDS011;36118;56.468;84.952;2022-09-24T10:32:38;10.20;;;4.57;;
50231;SDS011;36118;56.468;84.952;2022-09-24T10:37:48;12.95;;;3.13;;
50231;SDS011;36118;56.468;84.952;2022-09-24T10:42:55;6.63;;;3.30;;
50231;SDS011;36118;56.468;84.952;2022-09-24T10:48:02;8.25;;;2.25;;
50231;SDS011;36118;56.468;84.952;2022-09-24T10:53:16;8.47;;;2.80;;
50231;SDS011;36118;56.468;84.952;2022-09-24T11:14:35;8.67;;;4.90;;
50231;SDS011;36118;56.468;84.952;2022-09-24T11:25:20;8.70;;;4.18;;
50231;SDS011;36118;56.468;84.952;2022-09-24T11:30:37;11.10;;;4.03;;
50231;SDS011;36118;56.468;84.952;2022-09-24T11:36:00;8.57;;;4.55;;
50231;SDS011;36118;56.468;84.952;2022-09-24T11:57:04;13.25;;;6.43;;
50231;SDS011;36118;56.468;84.952;2022-09-24T12:02:19;21.10;;;10.77;;
50231;SDS011;36118;56.468;84.952;2022-09-24T12:07:28;15.30;;;8.02;;
50231;SDS011;36118;56.468;84.952;2022-09-24T12:12:36;19.17;;;8.15;;
50231;SDS011;36118;56.468;84.952;2022-09-24T12:23:07;7.00;;;4.20;;
50231;SDS011;36118;56.468;84.952;2022-09-24T12:28:14;10.73;;;5.65;;
50231;SDS011;36118;56.468;84.952;2022-09-24T12:33:56;12.18;;;5.70;;
50231;SDS011;36118;56.468;84.952;2022-09-24T12:39:07;12.85;;;4.88;;
50231;SDS011;36118;56.468;84.952;2022-09-24T12:44:14;11.25;;;5.80;;
50231;SDS011;36118;56.468;84.952;2022-09-24T12:54:33;14.25;;;7.22;;
50231;SDS011;36118;56.468;84.952;2022-09-24T12:59:49;20.50;;;10.68;;
50231;SDS011;36118;56.468;84.952;2022-09-24T13:15:33;21.60;;;12.45;;
50231;SDS011;36118;56.468;84.952;2022-09-24T13:20:43;22.77;;;12.65;;
50231;SDS011;36118;56.468;84.952;2022-09-24T13:25:55;26.45;;;13.05;;
50231;SDS011;36118;56.468;84.952;2022-09-24T13:31:12;24.88;;;11.65;;
50231;SDS011;36118;56.468;84.952;2022-09-24T13:41:45;26.83;;;13.38;;
50231;SDS011;36118;56.468;84.952;2022-09-24T13:46:54;29.33;;;13.75;;
50231;SDS011;36118;56.468;84.952;2022-09-24T13:57:51;28.65;;;15.35;;
50231;SDS011;36118;56.468;84.952;2022-09-24T14:08:14;35.97;;;17.67;;
50231;SDS011;36118;56.468;84.952;2022-09-24T14:13:25;36.13;;;19.73;;
50231;SDS011;36118;56.468;84.952;2022-09-24T14:18:28;36.65;;;21.75;;
50231;SDS011;36118;56.468;84.952;2022-09-24T14:23:33;36.65;;;19.30;;
50231;SDS011;36118;56.468;84.952;2022-09-24T14:28:39;36.45;;;20.48;;
50231;SDS011;36118;56.468;84.952;2022-09-24T14:33:42;41.67;;;20.52;;
50231;SDS011;36118;56.468;84.952;2022-09-24T14:49:22;28.65;;;14.48;;
50231;SDS011;36118;56.468;84.952;2022-09-24T14:59:35;22.27;;;11.00;;
50231;SDS011;36118;56.468;84.952;2022-09-24T15:04:38;20.92;;;12.38;;
50231;SDS011;36118;56.468;84.952;2022-09-24T15:09:41;22.65;;;12.27;;
50231;SDS011;36118;56.468;84.952;2022-09-24T15:14:52;33.35;;;12.90;;
50231;SDS011;36118;56.468;84.952;2022-09-24T15:19:56;24.40;;;10.55;;
50231;SDS011;36118;56.468;84.952;2022-09-24T15:24:59;18.00;;;9.88;;
50231;SDS011;36118;56.468;84.952;2022-09-24T15:30:05;18.30;;;9.07;;
50231;SDS011;36118;56.468;84.952;2022-09-24T15:35:11;13.82;;;7.38;;
50231;SDS011;36118;56.468;84.952;2022-09-24T15:40:20;16.08;;;7.45;;
50231;SDS011;36118;56.468;84.952;2022-09-24T15:45:25;15.05;;;7.78;;
50231;SDS011;36118;56.468;84.952;2022-09-24T15:50:27;16.17;;;7.70;;
50231;SDS011;36118;56.468;84.952;2022-09-24T15:55:31;11.65;;;5.15;;
50231;SDS011;36118;56.468;84.952;2022-09-24T16:00:37;10.52;;;4.80;;
50231;SDS011;36118;56.468;84.952;2022-09-24T16:05:40;9.93;;;5.55;;
50231;SDS011;36118;56.468;84.952;2022-09-24T16:10:43;11.95;;;5.07;;
50231;SDS011;36118;56.468;84.952;2022-09-24T16:15:46;8.07;;;4.50;;
50231;SDS011;36118;56.468;84.952;2022-09-24T16:20:50;8.00;;;4.03;;
50231;SDS011;36118;56.468;84.952;2022-09-24T16:25:54;8.10;;;3.75;;
50231;SDS011;36118;56.468;84.952;2022-09-24T16:31:03;6.75;;;3.53;;
50231;SDS011;36118;56.468;84.952;2022-09-24T16:36:08;8.75;;;2.90;;
50231;SDS011;36118;56.468;84.952;2022-09-24T16:41:11;5.63;;;2.50;;
50231;SDS011;36118;56.468;84.952;2022-09-24T16:46:14;5.63;;;2.33;;
50231;SDS011;36118;56.468;84.952;2022-09-24T16:51:21;6.03;;;2.30;;
50231;SDS011;36118;56.468;84.952;2022-09-24T16:56:25;5.00;;;2.55;;
50231;SDS011;36118;56.468;84.952;2022-09-24T17:01:27;8.52;;;3.88;;
50231;SDS011;36118;56.468;84.952;2022-09-24T17:06:30;10.38;;;3.38;;
50231;SDS011;36118;56.468;84.952;2022-09-24T17:11:33;7.60;;;3.55;;
50231;SDS011;36118;56.468;84.952;2022-09-24T17:16:37;6.53;;;3.60;;
50231;SDS011;36118;56.468;84.952;2022-09-24T17:21:41;4.53;;;2.50;;
50231;SDS011;36118;56.468;84.952;2022-09-24T17:26:47;4.78;;;2.70;;
50231;SDS011;36118;56.468;84.952;2022-09-24T17:31:50;5.57;;;2.78;;
50231;SDS011;36118;56.468;84.952;2022-09-24T17:36:53;8.98;;;3.78;;
50231;SDS011;36118;56.468;84.952;2022-09-24T17:41:56;7.90;;;3.15;;
50231;SDS011;36118;56.468;84.952;2022-09-24T17:46:59;9.05;;;3.33;;
50231;SDS011;36118;56.468;84.952;2022-09-24T17:52:02;6.82;;;2.95;;
50231;SDS011;36118;56.468;84.952;2022-09-24T17:57:05;4.55;;;2.47;;
50231;SDS011;36118;56.468;84.952;2022-09-24T18:02:08;4.45;;;2.30;;
50231;SDS011;36118;56.468;84.952;2022-09-24T18:07:12;6.50;;;3.15;;
50231;SDS011;36118;56.468;84.952;2022-09-24T18:12:14;5.68;;;2.72;;
50231;SDS011;36118;56.468;84.952;2022-09-24T18:17:18;5.30;;;2.95;;
50231;SDS011;36118;56.468;84.952;2022-09-24T18:22:21;7.72;;;3.78;;
50231;SDS011;36118;56.468;84.952;2022-09-24T18:27:24;7.13;;;3.50;;
50231;SDS011;36118;56.468;84.952;2022-09-24T18:32:26;4.70;;;2.10;;
50231;SDS011;36118;56.468;84.952;2022-09-24T18:37:31;4.28;;;2.42;;
50231;SDS011;36118;56.468;84.952;2022-09-24T18:42:36;5.57;;;2.22;;
50231;SDS011;36118;56.468;84.952;2022-09-24T18:47:39;4.57;;;2.20;;
50231;SDS011;36118;56.468;84.952;2022-09-24T18:52:41;4.50;;;2.05;;
50231;SDS011;36118;56.468;84.952;2022-09-24T18:57:44;6.20;;;2.00;;
50231;SDS011;36118;56.468;84.952;2022-09-24T19:02:47;6.50;;;3.00;;
50231;SDS011;36118;56.468;84.952;2022-09-24T19:07:50;10.40;;;3.63;;
50231;SDS011;36118;56.468;84.952;2022-09-24T19:12:53;6.60;;;3.00;;
50231;SDS011;36118;56.468;84.952;2022-09-24T19:17:56;8.25;;;3.10;;
50231;SDS011;36118;56.468;84.952;2022-09-24T19:22:59;6.80;;;2.53;;
50231;SDS011;36118;56.468;84.952;2022-09-24T19:28:02;5.45;;;2.50;;
50231;SDS011;36118;56.468;84.952;2022-09-24T19:33:07;8.10;;;2.97;;
50231;SDS011;36118;56.468;84.952;2022-09-24T19:38:10;6.07;;;2.67;;
50231;SDS011;36118;56.468;84.952;2022-09-24T19:43:17;5.07;;;2.22;;
50231;SDS011;36118;56.468;84.952;2022-09-24T19:48:20;5.45;;;2.38;;
50231;SDS011;36118;56.468;84.952;2022-09-24T19:53:22;4.38;;;2.45;;
50231;SDS011;36118;56.468;84.952;2022-09-24T19:58:25;4.03;;;2.15;;
50231;SDS011;36118;56.468;84.952;2022-09-24T20:03:32;6.80;;;1.90;;
50231;SDS011;36118;56.468;84.952;2022-09-24T20:08:36;7.93;;;2.47;;
50231;SDS011;36118;56.468;84.952;2022-09-24T20:13:40;7.57;;;2.70;;
50231;SDS011;36118;56.468;84.952;2022-09-24T20:18:52;9.00;;;2.78;;
50231;SDS011;36118;56.468;84.952;2022-09-24T20:23:57;10.10;;;3.53;;
50231;SDS011;36118;56.468;84.952;2022-09-24T20:29:03;8.97;;;2.50;;
50231;SDS011;36118;56.468;84.952;2022-09-24T20:34:08;13.55;;;3.50;;
50231;SDS011;36118;56.468;84.952;2022-09-24T20:39:10;11.60;;;3.53;;
50231;SDS011;36118;56.468;84.952;2022-09-24T20:44:13;12.52;;;4.05;;
50231;SDS011;36118;56.468;84.952;2022-09-24T20:49:17;12.25;;;3.33;;
50231;SDS011;36118;56.468;84.952;2022-09-24T20:54:24;14.82;;;4.18;;
50231;SDS011;36118;56.468;84.952;2022-09-24T21:04:35;6.00;;;2.40;;
50231;SDS011;36118;56.468;84.952;2022-09-24T21:09:38;3.45;;;1.83;;
50231;SDS011;36118;56.468;84.952;2022-09-24T21:14:41;5.43;;;2.15;;
50231;SDS011;36118;56.468;84.952;2022-09-24T21:19:43;18.45;;;4.47;;
50231;SDS011;36118;56.468;84.952;2022-09-24T21:24:46;15.07;;;4.50;;
50231;SDS011;36118;56.468;84.952;2022-09-24T21:29:52;10.20;;;2.80;;
50231;SDS011;36118;56.468;84.952;2022-09-24T21:34:55;13.07;;;3.90;;
50231;SDS011;36118;56.468;84.952;2022-09-24T21:39:57;9.88;;;3.45;;
50231;SDS011;36118;56.468;84.952;2022-09-24T21:45:00;9.43;;;2.72;;
50231;SDS011;36118;56.468;84.952;2022-09-24T21:50:03;5.15;;;1.85;;
50231;SDS011;36118;56.468;84.952;2022-09-24T21:55:07;3.47;;;1.42;;
50231;SDS011;36118;56.468;84.952;2022-09-24T22:00:12;3.95;;;1.80;;
50231;SDS011;36118;56.468;84.952;2022-09-24T22:05:15;3.38;;;1.70;;
50231;SDS011;36118;56.468;84.952;2022-09-24T22:10:19;6.75;;;2.20;;
50231;SDS011;36118;56.468;84.952;2022-09-24T22:15:22;9.50;;;3.00;;
50231;SDS011;36118;56.468;84.952;2022-09-24T22:20:25;13.55;;;3.47;;
50231;SDS011;36118;56.468;84.952;2022-09-24T22:25:28;4.97;;;2.30;;
50231;SDS011;36118;56.468;84.952;2022-09-24T22:30:32;9.10;;;2.50;;
50231;SDS011;36118;56.468;84.952;2022-09-24T22:35:35;18.67;;;4.75;;
50231;SDS011;36118;56.468;84.952;2022-09-24T22:40:51;22.00;;;4.60;;
50231;SDS011;36118;56.468;84.952;2022-09-24T22:45:57;19.25;;;5.10;;
50231;SDS011;36118;56.468;84.952;2022-09-24T22:51:00;15.80;;;3.90;;
50231;SDS011;36118;56.468;84.952;2022-09-24T22:56:09;20.30;;;5.35;;
50231;SDS011;36118;56.468;84.952;2022-09-24T23:01:17;24.92;;;5.00;;
50231;SDS011;36118;56.468;84.952;2022-09-24T23:06:23;20.02;;;5.00;;
50231;SDS011;36118;56.468;84.952;2022-09-24T23:11:31;11.75;;;3.60;;
50231;SDS011;36118;56.468;84.952;2022-09-24T23:16:35;3.85;;;1.77;;
50231;SDS011;36118;56.468;84.952;2022-09-24T23:21:38;4.32;;;1.90;;
50231;SDS011;36118;56.468;84.952;2022-09-24T23:26:42;4.15;;;1.70;;
50231;SDS011;36118;56.468;84.952;2022-09-24T23:31:45;4.63;;;1.85;;
50231;SDS011;36118;56.468;84.952;2022-09-24T23:36:47;5.70;;;2.33;;
50231;SDS011;36118;56.468;84.952;2022-09-24T23:41:51;4.32;;;2.10;;
50231;SDS011;36118;56.468;84.952;2022-09-24T23:46:53;3.63;;;2.10;;
50231;SDS011;36118;56.468;84.952;2022-09-24T23:51:57;4.35;;;2.00;;
50231;SDS011;36118;56.468;84.952;2022-09-24T23:57:00;3.83;;;2.00;;
